createdAt,value
2018-02-20T00:01:54.634Z,57.13
2018-02-20T00:04:21.780Z,57.97
2018-02-20T00:06:48.260Z,60.63
2018-02-20T00:09:16.002Z,56.95
2018-02-20T00:11:42.426Z,58.42
2018-02-20T00:14:08.857Z,59.17
2018-02-20T00:16:36.038Z,59.25
2018-02-20T00:19:02.504Z,60.78
2018-02-20T00:21:28.949Z,57.03
2018-02-20T00:23:56.222Z,60.70
2018-02-20T00:26:22.674Z,57.97
2018-02-20T00:28:49.837Z,60.30
2018-02-20T00:31:16.993Z,57.88
2018-02-20T00:33:43.394Z,60.83
2018-02-20T00:36:09.805Z,59.63
2018-02-20T00:38:41.590Z,58.35
2018-02-20T00:41:08.875Z,60.63
2018-02-20T00:43:36.006Z,56.90
2018-02-20T00:46:02.494Z,58.45
2018-02-20T00:48:29.662Z,59.97
2018-02-20T00:50:56.070Z,58.28
2018-02-20T00:53:22.506Z,60.30
2018-02-20T00:55:48.898Z,61.28
2018-02-20T00:58:15.329Z,59.05
2018-02-20T01:00:41.734Z,59.03
2018-02-20T01:03:08.915Z,60.80
2018-02-20T01:05:36.079Z,58.90
2018-02-20T01:08:02.567Z,61.25
2018-02-20T01:10:28.990Z,57.88
2018-02-20T01:12:55.404Z,57.75
2018-02-20T01:15:21.806Z,55.95
2018-02-20T01:17:48.977Z,60.23
2018-02-20T01:20:16.133Z,57.37
2018-02-20T01:22:43.291Z,58.70
2018-02-20T01:25:09.741Z,57.75
2018-02-20T01:27:36.125Z,55.65
2018-02-20T01:30:03.366Z,56.72
2018-02-20T01:32:29.794Z,56.70
2018-02-20T01:34:56.206Z,59.42
2018-02-20T01:37:22.613Z,56.95
2018-02-20T01:39:49.057Z,55.60
2018-02-20T01:42:15.496Z,56.83
2018-02-20T01:44:42.662Z,58.33
2018-02-20T01:47:09.825Z,56.75
2018-02-20T01:49:36.228Z,55.70
2018-02-20T01:52:02.652Z,56.83
2018-02-20T01:54:29.085Z,62.47
2018-02-20T01:56:59.306Z,57.37
2018-02-20T01:59:25.827Z,58.73
2018-02-20T02:01:52.263Z,59.33
2018-02-20T02:04:19.401Z,58.33
2018-02-20T02:06:45.819Z,58.70
2018-02-20T02:09:12.311Z,60.92
2018-02-20T02:11:38.741Z,57.90
2018-02-20T02:14:05.165Z,60.90
2018-02-20T02:16:31.600Z,58.20
2018-02-20T02:18:58.789Z,62.33
2018-02-20T02:21:25.244Z,60.40
2018-02-20T02:23:52.388Z,58.57
2018-02-20T02:26:18.791Z,58.50
2018-02-20T02:28:45.235Z,56.67
2018-02-20T02:31:11.632Z,59.55
2018-02-20T02:33:38.070Z,57.88
2018-02-20T02:36:04.467Z,57.45
2018-02-20T02:38:31.647Z,59.55
2018-02-20T02:40:58.822Z,60.10
2018-02-20T02:43:25.284Z,56.92
2018-02-20T02:45:52.465Z,57.90
2018-02-20T02:48:19.679Z,59.65
2018-02-20T02:50:46.106Z,53.08
2018-02-20T02:53:12.537Z,57.10
2018-02-20T02:55:39.823Z,52.00
2018-02-20T02:58:06.972Z,55.90
2018-02-20T03:00:34.114Z,56.17
2018-02-20T03:03:00.490Z,57.30
2018-02-20T03:05:27.433Z,53.67
2018-02-20T03:07:53.846Z,53.58
2018-02-20T03:10:20.988Z,53.15
2018-02-20T03:12:48.902Z,51.28
2018-02-20T03:15:16.065Z,53.03
2018-02-20T03:17:43.208Z,53.95
2018-02-20T03:20:10.355Z,52.85
2018-02-20T03:22:36.794Z,51.00
2018-02-20T03:25:03.220Z,51.35
2018-02-20T03:27:30.377Z,47.38
2018-02-20T03:29:56.811Z,52.35
2018-02-20T03:32:23.255Z,53.53
2018-02-20T03:34:49.667Z,50.95
2018-02-20T03:37:16.815Z,50.60
2018-02-20T03:39:43.841Z,52.28
2018-02-20T03:42:10.244Z,50.17
2018-02-20T03:44:37.422Z,51.00
2018-02-20T03:47:04.561Z,51.28
2018-02-20T03:49:30.967Z,49.33
2018-02-20T03:51:57.368Z,50.83
2018-02-20T03:54:24.328Z,49.45
2018-02-20T03:56:50.843Z,50.00
2018-02-20T03:59:17.989Z,46.47
2018-02-20T04:01:44.367Z,49.42
2018-02-20T04:04:13.514Z,49.70
2018-02-20T04:06:39.975Z,50.05
2018-02-20T04:11:46.450Z,48.15
2018-02-20T04:14:13.595Z,47.33
2018-02-20T04:16:40.287Z,48.55
2018-02-20T04:19:07.444Z,48.20
2018-02-20T04:21:34.627Z,48.65
2018-02-20T04:24:02.623Z,47.13
2018-02-20T04:26:29.753Z,47.53
2018-02-20T04:28:56.211Z,47.25
2018-02-20T04:31:22.675Z,51.17
2018-02-20T04:33:49.093Z,49.80
2018-02-20T04:36:15.472Z,49.05
2018-02-20T04:38:41.880Z,49.60
2018-02-20T04:41:08.283Z,48.25
2018-02-20T04:43:34.675Z,46.35
2018-02-20T04:46:01.825Z,51.25
2018-02-20T04:48:28.244Z,50.33
2018-02-20T04:50:54.668Z,51.17
2018-02-20T04:53:21.816Z,48.53
2018-02-20T04:55:48.240Z,54.00
2018-02-20T04:58:14.639Z,50.38
2018-02-20T05:00:41.796Z,49.95
2018-02-20T05:03:08.225Z,51.75
2018-02-20T05:05:34.615Z,57.58
2018-02-20T05:08:01.756Z,56.90
2018-02-20T05:10:28.171Z,56.30
2018-02-20T05:12:54.569Z,56.35
2018-02-20T05:15:21.068Z,55.12
2018-02-20T05:17:48.248Z,53.78
2018-02-20T05:20:14.798Z,52.88
2018-02-20T05:22:41.971Z,57.08
2018-02-20T05:25:09.144Z,54.03
2018-02-20T05:27:36.306Z,54.20
2018-02-20T05:30:02.809Z,55.78
2018-02-20T05:32:29.242Z,55.58
2018-02-20T05:34:55.676Z,55.90
2018-02-20T05:37:22.958Z,54.40
2018-02-20T05:39:50.114Z,54.10
2018-02-20T05:42:16.534Z,54.35
2018-02-20T05:44:42.947Z,48.50
2018-02-20T05:47:09.372Z,49.60
2018-02-20T05:49:35.795Z,53.10
2018-02-20T05:52:02.215Z,53.40
2018-02-20T05:54:28.637Z,48.85
2018-02-20T05:56:55.059Z,50.60
2018-02-20T05:59:21.499Z,47.17
2018-02-20T06:01:47.963Z,47.38
2018-02-20T06:04:14.335Z,49.35
2018-02-20T06:06:40.787Z,46.58
2018-02-20T06:09:07.247Z,52.03
2018-02-20T06:11:33.657Z,51.37
2018-02-20T06:14:00.068Z,48.72
2018-02-20T06:16:26.521Z,49.13
2018-02-20T06:18:52.918Z,57.05
2018-02-20T06:21:20.098Z,56.88
2018-02-20T06:23:46.502Z,51.25
2018-02-20T06:26:12.975Z,57.40
2018-02-20T06:28:40.159Z,106.25
2018-02-20T06:31:06.570Z,64.10
2018-02-20T06:33:32.988Z,53.50
2018-02-20T06:35:59.425Z,48.95
2018-02-20T06:38:25.919Z,51.22
2018-02-20T06:40:52.457Z,46.17
2018-02-20T06:43:19.732Z,45.17
2018-02-20T06:45:46.923Z,47.62
2018-02-20T06:48:13.352Z,46.67
2018-02-20T06:50:40.519Z,46.78
2018-02-20T06:53:07.717Z,46.47
2018-02-20T06:55:34.173Z,46.53
2018-02-20T06:58:00.578Z,48.15
2018-02-20T07:00:27.002Z,44.15
2018-02-20T07:02:53.406Z,53.42
2018-02-20T07:05:19.787Z,46.55
2018-02-20T07:07:46.214Z,57.10
2018-02-20T07:10:12.639Z,57.85
2018-02-20T07:12:39.151Z,78.65
2018-02-20T07:15:05.608Z,51.50
2018-02-20T07:17:32.854Z,47.03
2018-02-20T07:19:59.305Z,48.20
2018-02-20T07:22:25.746Z,40.58
2018-02-20T07:24:57.173Z,40.67
2018-02-20T07:27:23.617Z,42.35
2018-02-20T07:29:50.055Z,38.35
2018-02-20T07:32:17.233Z,40.40
2018-02-20T07:34:44.365Z,40.33
2018-02-20T07:37:10.819Z,40.60
2018-02-20T07:39:37.265Z,39.58
2018-02-20T07:42:03.710Z,38.38
2018-02-20T07:44:30.239Z,41.67
2018-02-20T07:46:57.514Z,40.83
2018-02-20T07:49:24.683Z,38.73
2018-02-20T07:51:51.831Z,38.20
2018-02-20T07:54:18.316Z,40.00
2018-02-20T07:56:45.464Z,38.42
2018-02-20T07:59:11.898Z,39.95
2018-02-20T08:01:38.342Z,39.10
2018-02-20T08:04:04.734Z,41.15
2018-02-20T08:06:31.925Z,40.33
2018-02-20T08:08:59.142Z,38.58
2018-02-20T08:11:25.657Z,39.85
2018-02-20T08:13:52.785Z,39.63
2018-02-20T08:16:19.284Z,39.28
2018-02-20T08:18:46.463Z,40.78
2018-02-20T08:21:13.015Z,36.58
2018-02-20T08:23:40.171Z,64.55
2018-02-20T08:26:07.351Z,34.15
2018-02-20T08:28:34.635Z,36.05
2018-02-20T08:31:01.785Z,35.13
2018-02-20T08:33:28.262Z,32.88
2018-02-20T08:35:55.539Z,34.45
2018-02-20T08:38:22.669Z,31.83
2018-02-20T08:40:49.078Z,34.80
2018-02-20T08:43:15.621Z,32.50
2018-02-20T08:45:42.916Z,34.33
2018-02-20T08:48:09.410Z,31.55
2018-02-20T08:50:35.820Z,37.13
2018-02-20T08:53:02.258Z,35.87
2018-02-20T08:55:29.394Z,35.45
2018-02-20T08:57:55.799Z,33.70
2018-02-20T09:00:22.189Z,35.28
2018-02-20T09:02:48.703Z,33.80
2018-02-20T09:05:15.877Z,38.03
2018-02-20T09:07:43.253Z,35.63
2018-02-20T09:10:10.496Z,36.07
2018-02-20T09:12:36.912Z,53.55
2018-02-20T09:15:03.368Z,127.93
2018-02-20T09:17:29.776Z,160.55
2018-02-20T09:19:56.983Z,60.75
2018-02-20T09:22:23.387Z,47.22
2018-02-20T09:24:49.805Z,34.70
2018-02-20T09:27:16.207Z,39.00
2018-02-20T09:29:42.565Z,34.05
2018-02-20T09:32:08.976Z,42.90
2018-02-20T09:34:35.390Z,32.92
2018-02-20T09:37:01.852Z,34.10
2018-02-20T09:39:29.006Z,33.70
2018-02-20T09:41:56.162Z,33.97
2018-02-20T09:44:22.617Z,33.08
2018-02-20T09:46:49.013Z,36.47
2018-02-20T09:49:16.175Z,32.75
2018-02-20T09:51:43.352Z,38.80
2018-02-20T09:54:10.530Z,30.45
2018-02-20T09:56:36.938Z,33.05
2018-02-20T09:59:03.378Z,31.33
2018-02-20T10:01:29.824Z,33.67
2018-02-20T10:03:56.239Z,30.77
2018-02-20T10:06:23.388Z,33.05
2018-02-20T10:08:50.551Z,31.17
2018-02-20T10:11:17.047Z,33.85
2018-02-20T10:13:44.241Z,32.17
2018-02-20T10:16:10.652Z,33.22
2018-02-20T10:18:37.666Z,36.60
2018-02-20T10:21:04.128Z,31.98
2018-02-20T10:23:30.562Z,30.40
2018-02-20T10:25:56.967Z,28.52
2018-02-20T10:28:23.400Z,29.60
2018-02-20T10:30:49.831Z,30.65
2018-02-20T10:33:16.212Z,32.33
2018-02-20T10:35:42.616Z,25.55
2018-02-20T10:38:09.066Z,32.53
2018-02-20T10:40:35.488Z,26.67
2018-02-20T10:43:01.942Z,27.62
2018-02-20T10:45:28.410Z,26.00
2018-02-20T10:47:54.820Z,35.63
2018-02-20T10:50:21.276Z,27.55
2018-02-20T10:52:47.750Z,22.93
2018-02-20T10:55:14.787Z,26.73
2018-02-20T10:57:41.950Z,30.98
2018-02-20T11:00:09.102Z,22.92
2018-02-20T11:02:35.536Z,21.15
2018-02-20T11:05:02.016Z,21.60
2018-02-20T11:07:28.411Z,23.70
2018-02-20T11:09:54.838Z,27.83
2018-02-20T11:12:21.251Z,24.10
2018-02-20T11:14:47.691Z,24.05
2018-02-20T11:17:14.119Z,28.57
2018-02-20T11:19:41.276Z,23.98
2018-02-20T11:22:07.696Z,28.12
2018-02-20T11:24:34.156Z,25.47
2018-02-20T11:27:00.596Z,25.98
2018-02-20T11:29:27.014Z,22.65
2018-02-20T11:31:54.302Z,23.20
2018-02-20T11:34:20.805Z,23.20
2018-02-20T11:36:47.272Z,23.77
2018-02-20T11:39:15.172Z,28.58
2018-02-20T11:41:41.719Z,24.15
2018-02-20T11:44:08.125Z,24.20
2018-02-20T11:46:34.754Z,28.38
2018-02-20T11:49:01.176Z,26.62
2018-02-20T11:51:28.404Z,27.43
2018-02-20T11:53:56.084Z,27.48
2018-02-20T11:56:23.273Z,27.52
2018-02-20T11:58:49.816Z,26.60
2018-02-20T12:01:17.094Z,27.50
2018-02-20T12:03:43.503Z,27.60
2018-02-20T12:06:10.668Z,25.42
2018-02-20T12:08:37.088Z,26.37
2018-02-20T12:11:03.576Z,29.35
2018-02-20T12:13:30.053Z,29.05
2018-02-20T12:15:56.579Z,29.52
2018-02-20T12:18:23.032Z,28.00
2018-02-20T12:20:49.429Z,27.70
2018-02-20T12:23:16.615Z,35.30
2018-02-20T12:25:43.762Z,27.27
2018-02-20T12:28:10.254Z,25.52
2018-02-20T12:30:37.426Z,29.98
2018-02-20T12:33:04.556Z,31.52
2018-02-20T12:35:30.985Z,28.42
2018-02-20T12:37:57.513Z,31.08
2018-02-20T12:40:23.948Z,26.60
2018-02-20T12:42:50.405Z,31.02
2018-02-20T12:45:16.859Z,27.00
2018-02-20T12:47:43.275Z,28.38
2018-02-20T12:50:09.792Z,28.08
2018-02-20T12:52:36.974Z,29.92
2018-02-20T12:55:03.525Z,31.98
2018-02-20T12:57:30.717Z,30.50
2018-02-20T12:59:57.149Z,30.77
2018-02-20T13:02:24.332Z,31.58
2018-02-20T13:04:50.745Z,33.38
2018-02-20T13:07:17.214Z,30.52
2018-02-20T13:09:43.634Z,32.92
2018-02-20T13:12:10.096Z,31.87
2018-02-20T13:14:36.512Z,34.35
2018-02-20T13:17:03.713Z,32.00
2018-02-20T13:19:30.179Z,32.72
2018-02-20T13:21:56.824Z,33.65
2018-02-20T13:24:23.518Z,36.38
2018-02-20T13:26:49.992Z,33.50
2018-02-20T13:29:16.461Z,32.85
2018-02-20T13:31:42.890Z,37.22
2018-02-20T13:34:09.303Z,28.35
2018-02-20T13:36:35.941Z,31.90
2018-02-20T13:39:03.263Z,35.27
2018-02-20T13:41:30.488Z,45.77
2018-02-20T13:43:57.575Z,41.05
2018-02-20T13:46:24.370Z,41.40
2018-02-20T13:48:51.557Z,35.07
2018-02-20T13:51:18.027Z,39.97
2018-02-20T13:53:44.644Z,33.70
2018-02-20T13:56:11.087Z,30.35
2018-02-20T13:58:40.725Z,30.35
2018-02-20T14:01:07.164Z,30.73
2018-02-20T14:03:33.644Z,31.77
2018-02-20T14:06:00.176Z,30.27
2018-02-20T14:08:26.709Z,33.47
2018-02-20T14:10:53.181Z,29.00
2018-02-20T14:13:20.254Z,32.78
2018-02-20T14:15:46.720Z,31.90
2018-02-20T14:18:14.060Z,30.62
2018-02-20T14:20:40.646Z,31.95
2018-02-20T14:23:07.093Z,34.22
2018-02-20T14:25:33.887Z,34.70
2018-02-20T14:28:00.294Z,53.65
2018-02-20T14:30:27.492Z,31.83
2018-02-20T14:32:54.009Z,30.83
2018-02-20T14:35:20.598Z,66.10
2018-02-20T14:37:47.041Z,31.25
2018-02-20T14:40:15.108Z,27.15
2018-02-20T14:42:42.540Z,26.98
2018-02-20T14:45:09.073Z,31.92
2018-02-20T14:47:36.271Z,27.20
2018-02-20T14:50:02.822Z,27.83
2018-02-20T14:52:29.793Z,28.10
2018-02-20T14:54:56.472Z,29.40
2018-02-20T14:57:23.116Z,26.48
2018-02-20T14:59:49.584Z,27.83
2018-02-20T15:02:17.221Z,31.52
2018-02-20T15:04:43.814Z,29.10
2018-02-20T15:07:10.827Z,29.85
2018-02-20T15:09:38.100Z,26.50
2018-02-20T15:12:05.374Z,28.40
2018-02-20T15:14:31.837Z,29.37
2018-02-20T15:16:59.017Z,32.50
2018-02-20T15:19:25.490Z,31.05
2018-02-20T15:21:52.011Z,75.50
2018-02-20T15:24:18.504Z,38.30
2018-02-20T15:26:45.843Z,39.25
2018-02-20T15:29:12.587Z,42.00
2018-02-20T15:31:39.051Z,38.20
2018-02-20T15:34:05.590Z,32.90
2018-02-20T15:36:32.280Z,34.47
2018-02-20T15:38:58.856Z,32.45
2018-02-20T15:41:25.288Z,32.80
2018-02-20T15:43:51.954Z,34.80
2018-02-20T15:46:18.417Z,35.53
2018-02-20T15:48:44.877Z,33.38
2018-02-20T15:51:11.383Z,33.35
2018-02-20T15:53:37.843Z,33.45
2018-02-20T15:56:05.092Z,34.55
2018-02-20T15:58:32.392Z,33.63
2018-02-20T16:00:59.195Z,36.17
2018-02-20T16:03:25.945Z,38.30
2018-02-20T16:05:52.380Z,41.13
2018-02-20T16:08:18.930Z,38.35
2018-02-20T16:10:45.729Z,36.33
2018-02-20T16:13:12.197Z,36.97
2018-02-20T16:15:41.575Z,35.08
2018-02-20T16:18:08.036Z,32.55
2018-02-20T16:20:35.203Z,36.30
2018-02-20T16:23:03.534Z,44.30
2018-02-20T16:25:30.467Z,42.92
2018-02-20T16:27:57.874Z,50.97
2018-02-20T16:30:24.404Z,44.10
2018-02-20T16:32:51.855Z,42.75
2018-02-20T16:35:18.333Z,47.10
2018-02-20T16:37:45.613Z,45.28
2018-02-20T16:40:12.158Z,34.58
2018-02-20T16:42:38.811Z,32.30
2018-02-20T16:45:10.000Z,32.45
2018-02-20T16:47:36.451Z,31.73
2018-02-20T16:50:03.618Z,29.00
2018-02-20T16:52:30.882Z,34.20
2018-02-20T16:54:57.539Z,43.75
2018-02-20T16:57:24.909Z,44.28
2018-02-20T16:59:52.208Z,52.80
2018-02-20T17:02:20.307Z,49.20
2018-02-20T17:04:46.843Z,53.33
2018-02-20T17:07:13.657Z,52.25
2018-02-20T17:09:40.338Z,58.73
2018-02-20T17:12:06.795Z,62.40
2018-02-20T17:14:33.234Z,60.17
2018-02-20T17:16:59.834Z,58.90
2018-02-20T17:19:26.925Z,55.28
2018-02-20T17:21:53.569Z,57.45
2018-02-20T17:24:20.305Z,76.00
2018-02-20T17:26:46.783Z,66.45
2018-02-20T17:29:14.440Z,62.40
2018-02-20T17:31:41.195Z,153.12
2018-02-20T17:34:07.705Z,67.57
2018-02-20T17:36:34.984Z,56.33
2018-02-20T17:39:01.500Z,60.90
2018-02-20T17:41:27.967Z,58.65
2018-02-20T17:43:54.861Z,62.65
2018-02-20T17:46:21.338Z,64.07
2018-02-20T17:48:48.123Z,61.63
2018-02-20T17:51:14.842Z,62.95
2018-02-20T17:53:41.999Z,62.65
2018-02-20T17:56:09.652Z,62.40
2018-02-20T17:58:36.139Z,65.07
2018-02-20T18:01:02.717Z,65.30
2018-02-20T18:03:29.392Z,67.75
2018-02-20T18:05:55.987Z,65.75
2018-02-20T18:08:23.362Z,66.55
2018-02-20T18:11:17.435Z,71.35
2018-02-20T18:13:43.884Z,70.12
2018-02-20T18:16:10.354Z,69.82
2018-02-20T18:18:36.851Z,72.73
2018-02-20T18:21:04.048Z,77.05
2018-02-20T18:23:30.492Z,73.18
2018-02-20T18:25:56.923Z,71.57
2018-02-20T18:28:24.105Z,69.53
2018-02-20T18:30:51.287Z,67.87
2018-02-20T18:33:17.753Z,73.32
2018-02-20T18:35:44.146Z,71.03
2018-02-20T18:38:10.575Z,73.00
2018-02-20T18:40:37.010Z,75.90
2018-02-20T18:43:03.506Z,76.17
2018-02-20T18:45:29.984Z,80.87
2018-02-20T18:47:56.400Z,83.28
2018-02-20T18:50:23.035Z,83.78
2018-02-20T18:52:50.271Z,82.90
2018-02-20T18:55:17.611Z,85.03
2018-02-20T18:57:44.105Z,91.20
2018-02-20T19:00:10.599Z,122.37
2018-02-20T19:02:37.772Z,238.82
2018-02-20T19:05:04.942Z,116.05
2018-02-20T19:07:32.219Z,118.75
2018-02-20T19:09:58.876Z,104.47
2018-02-20T19:12:25.380Z,123.25
2018-02-20T19:14:51.893Z,101.57
2018-02-20T19:17:19.165Z,117.35
2018-02-20T19:19:47.221Z,101.35
2018-02-20T19:22:14.458Z,88.50
2018-02-20T19:24:40.930Z,79.80
2018-02-20T19:27:07.336Z,77.03
2018-02-20T19:29:34.854Z,71.32
2018-02-20T19:32:01.364Z,66.97
2018-02-20T19:34:28.656Z,74.05
2018-02-20T19:36:55.853Z,78.27
2018-02-20T19:39:22.385Z,78.62
2018-02-20T19:41:49.763Z,76.72
2018-02-20T19:44:16.223Z,81.05
2018-02-20T19:46:42.654Z,80.20
2018-02-20T19:49:09.234Z,81.75
2018-02-20T19:51:36.454Z,84.77
2018-02-20T19:54:03.023Z,75.37
2018-02-20T19:56:29.466Z,75.68
2018-02-20T19:58:55.858Z,76.18
2018-02-20T20:01:22.274Z,81.28
2018-02-20T20:03:48.892Z,78.55
2018-02-20T20:06:15.450Z,77.12
2018-02-20T20:08:42.646Z,82.35
2018-02-20T20:11:09.062Z,80.30
2018-02-20T20:13:35.497Z,79.00
2018-02-20T20:16:01.963Z,74.50
2018-02-20T20:18:28.417Z,75.35
2018-02-20T20:20:55.005Z,76.35
2018-02-20T20:23:22.463Z,78.55
2018-02-20T20:25:49.622Z,75.62
2018-02-20T20:28:17.166Z,70.95
2018-02-20T20:30:43.614Z,68.10
2018-02-20T20:33:10.123Z,71.10
2018-02-20T20:35:37.393Z,73.53
2018-02-20T20:38:03.893Z,68.60
2018-02-20T20:40:30.303Z,71.78
2018-02-20T20:42:57.612Z,74.72
2018-02-20T20:45:24.172Z,72.80
2018-02-20T20:47:51.444Z,71.80
2018-02-20T20:50:18.650Z,73.28
2018-02-20T20:52:46.096Z,74.55
2018-02-20T20:55:12.655Z,76.20
2018-02-20T20:57:39.116Z,72.68
2018-02-20T21:00:05.562Z,72.85
2018-02-20T21:02:32.843Z,69.68
2018-02-20T21:04:59.997Z,70.10
2018-02-20T21:07:27.169Z,72.68
2018-02-20T21:09:53.592Z,73.40
2018-02-20T21:12:19.996Z,68.97
2018-02-20T21:14:47.200Z,73.03
2018-02-20T21:17:13.694Z,70.97
2018-02-20T21:19:40.160Z,73.07
2018-02-20T21:22:06.624Z,71.53
2018-02-20T21:24:33.827Z,67.80
2018-02-20T21:27:00.369Z,67.07
2018-02-20T21:29:27.538Z,65.65
2018-02-20T21:31:54.724Z,64.45
2018-02-20T21:34:21.166Z,66.82
2018-02-20T21:36:48.348Z,67.03
2018-02-20T21:39:14.898Z,64.60
2018-02-20T21:41:42.189Z,62.33
2018-02-20T21:44:08.615Z,66.50
2018-02-20T21:46:36.011Z,64.63
2018-02-20T21:49:02.674Z,72.40
2018-02-20T21:51:29.280Z,68.12
2018-02-20T21:53:55.724Z,74.20
2018-02-20T21:56:22.189Z,70.62
2018-02-20T21:58:48.622Z,65.30
2018-02-20T22:01:15.054Z,63.95
2018-02-20T22:03:42.225Z,63.33
2018-02-20T22:06:09.477Z,66.78
2018-02-20T22:08:36.638Z,62.80
2018-02-20T22:11:03.126Z,65.35
2018-02-20T22:13:30.306Z,65.70
2018-02-20T22:15:56.756Z,63.42
2018-02-20T22:18:23.968Z,66.62
2018-02-20T22:20:50.366Z,65.35
2018-02-20T22:23:16.786Z,67.45
2018-02-20T22:25:43.188Z,62.05
2018-02-20T22:28:10.495Z,67.22
2018-02-20T22:30:36.923Z,63.17
2018-02-20T22:33:04.157Z,69.20
2018-02-20T22:35:30.640Z,77.50
2018-02-20T22:37:58.013Z,63.78
2018-02-20T22:40:24.418Z,67.85
2018-02-20T22:42:50.852Z,74.57
2018-02-20T22:45:17.311Z,94.00
2018-02-20T22:47:43.734Z,92.90
2018-02-20T22:50:10.163Z,108.00
2018-02-20T22:52:36.577Z,112.75
2018-02-20T22:55:03.197Z,121.95
2018-02-20T22:57:30.399Z,126.05
2018-02-20T22:59:57.649Z,124.50
2018-02-20T23:02:24.238Z,120.68
2018-02-20T23:04:50.722Z,101.22
2018-02-20T23:07:17.176Z,88.80
2018-02-20T23:09:43.651Z,86.82
2018-02-20T23:12:10.259Z,82.28
2018-02-20T23:14:36.822Z,72.35
2018-02-20T23:17:03.942Z,69.72
2018-02-20T23:19:30.382Z,73.43
2018-02-20T23:21:56.907Z,77.50
2018-02-20T23:24:23.460Z,79.75
2018-02-20T23:26:50.610Z,72.00
2018-02-20T23:29:17.047Z,72.25
2018-02-20T23:31:44.103Z,78.07
2018-02-20T23:34:10.678Z,73.40
2018-02-20T23:36:37.119Z,72.22
2018-02-20T23:39:03.631Z,74.75
2018-02-20T23:41:30.800Z,71.87
2018-02-20T23:43:57.959Z,67.47
2018-02-20T23:46:24.947Z,66.85
2018-02-20T23:48:51.405Z,72.15
2018-02-20T23:51:23.917Z,64.90
2018-02-20T23:53:50.349Z,65.22
2018-02-20T23:56:19.617Z,68.25
2018-02-20T23:58:46.026Z,67.30
